sensor_id;sensor_type;location;lat;lon;timestamp;pressure;altitude;pressure_sealevel;temperature;humidity
12987;BME280;58897;51.960;5.582;2023-05-01T00:01:00;101483.91;;;11.60;100.00
12987;BME280;58897;51.960;5.582;2023-05-01T00:03:26;101479.19;;;11.62;100.00
12987;BME280;58897;51.960;5.582;2023-05-01T00:06:01;101475.91;;;11.58;100.00
12987;BME280;58897;51.960;5.582;2023-05-01T00:08:28;101471.38;;;11.59;100.00
12987;BME280;58897;51.960;5.582;2023-05-01T00:10:54;101473.31;;;11.49;100.00
12987;BME280;58897;51.960;5.582;2023-05-01T00:13:21;101468.41;;;11.35;100.00
12987;BME280;58897;51.960;5.582;2023-05-01T00:15:49;101469.94;;;11.37;100.00
12987;BME280;58897;51.960;5.582;2023-05-01T00:18:16;101460.84;;;11.38;100.00
12987;BME280;58897;51.960;5.582;2023-05-01T00:20:43;101464.72;;;11.36;100.00
12987;BME280;58897;51.960;5.582;2023-05-01T00:23:09;101457.50;;;11.27;100.00
12987;BME280;58897;51.960;5.582;2023-05-01T00:25:37;101446.16;;;11.23;100.00
12987;BME280;58897;51.960;5.582;2023-05-01T00:28:04;101447.22;;;11.30;100.00
12987;BME280;58897;51.960;5.582;2023-05-01T00:30:32;101451.25;;;11.26;100.00
12987;BME280;58897;51.960;5.582;2023-05-01T00:32:59;101443.44;;;11.23;100.00
12987;BME280;58897;51.960;5.582;2023-05-01T00:35:28;101434.28;;;11.34;100.00
12987;BME280;58897;51.960;5.582;2023-05-01T00:37:55;101443.44;;;11.23;100.00
12987;BME280;58897;51.960;5.582;2023-05-01T00:40:21;101437.28;;;11.31;100.00
12987;BME280;58897;51.960;5.582;2023-05-01T00:42:48;101427.75;;;11.27;100.00
12987;BME280;58897;51.960;5.582;2023-05-01T00:45:14;101430.84;;;11.14;100.00
12987;BME280;58897;51.960;5.582;2023-05-01T00:47:41;101428.28;;;11.12;100.00
12987;BME280;58897;51.960;5.582;2023-05-01T00:50:08;101420.94;;;11.05;100.00
12987;BME280;58897;51.960;5.582;2023-05-01T00:52:35;101417.09;;;11.07;100.00
12987;BME280;58897;51.960;5.582;2023-05-01T00:55:03;101410.34;;;11.11;100.00
12987;BME280;58897;51.960;5.582;2023-05-01T00:57:31;101421.38;;;11.00;100.00
12987;BME280;58897;51.960;5.582;2023-05-01T00:59:57;101408.59;;;11.02;100.00
12987;BME280;58897;51.960;5.582;2023-05-01T01:02:24;101413.81;;;10.86;100.00
12987;BME280;58897;51.960;5.582;2023-05-01T01:04:52;101402.38;;;10.92;100.00
12987;BME280;58897;51.960;5.582;2023-05-01T01:07:31;101410.63;;;10.91;100.00
12987;BME280;58897;51.960;5.582;2023-05-01T01:10:21;101396.97;;;10.92;100.00
12987;BME280;58897;51.960;5.582;2023-05-01T01:13:08;101389.56;;;10.94;100.00
12987;BME280;58897;51.960;5.582;2023-05-01T01:16:06;101392.97;;;10.96;100.00
12987;BME280;58897;51.960;5.582;2023-05-01T01:18:55;101386.16;;;10.92;100.00
12987;BME280;58897;51.960;5.582;2023-05-01T01:21:41;101381.38;;;10.86;100.00
12987;BME280;58897;51.960;5.582;2023-05-01T01:27:30;101375.81;;;11.05;100.00
12987;BME280;58897;51.960;5.582;2023-05-01T01:30:33;101372.78;;;10.91;100.00
12987;BME280;58897;51.960;5.582;2023-05-01T01:36:10;101367.66;;;10.97;100.00
12987;BME280;58897;51.960;5.582;2023-05-01T01:38:56;101362.53;;;10.94;100.00
12987;BME280;58897;51.960;5.582;2023-05-01T01:41:29;101353.56;;;10.94;100.00
12987;BME280;58897;51.960;5.582;2023-05-01T01:44:08;101350.69;;;10.95;100.00
12987;BME280;58897;51.960;5.582;2023-05-01T01:46:37;101351.34;;;10.89;100.00
12987;BME280;58897;51.960;5.582;2023-05-01T01:49:15;101348.53;;;10.81;100.00
12987;BME280;58897;51.960;5.582;2023-05-01T01:51:47;101344.69;;;10.84;100.00
12987;BME280;58897;51.960;5.582;2023-05-01T01:54:15;101345.84;;;10.81;100.00
12987;BME280;58897;51.960;5.582;2023-05-01T01:56:45;101335.72;;;10.83;100.00
12987;BME280;58897;51.960;5.582;2023-05-01T01:59:13;101332.63;;;10.78;100.00
12987;BME280;58897;51.960;5.582;2023-05-01T02:01:40;101336.59;;;10.84;100.00
12987;BME280;58897;51.960;5.582;2023-05-01T02:04:08;101326.38;;;10.78;100.00
12987;BME280;58897;51.960;5.582;2023-05-01T02:06:37;101322.50;;;10.80;100.00
12987;BME280;58897;51.960;5.582;2023-05-01T02:09:05;101320.50;;;10.82;100.00
12987;BME280;58897;51.960;5.582;2023-05-01T02:11:34;101314.56;;;10.79;100.00
12987;BME280;58897;51.960;5.582;2023-05-01T02:14:03;101311.91;;;10.69;100.00
12987;BME280;58897;51.960;5.582;2023-05-01T02:16:32;101310.22;;;10.68;100.00
12987;BME280;58897;51.960;5.582;2023-05-01T02:19:03;101309.84;;;10.63;100.00
12987;BME280;58897;51.960;5.582;2023-05-01T02:21:32;101311.22;;;10.67;100.00
12987;BME280;58897;51.960;5.582;2023-05-01T02:24:00;101304.84;;;10.68;100.00
12987;BME280;58897;51.960;5.582;2023-05-01T02:26:28;101309.69;;;10.65;100.00
12987;BME280;58897;51.960;5.582;2023-05-01T02:28:55;101298.88;;;10.65;100.00
12987;BME280;58897;51.960;5.582;2023-05-01T02:31:21;101306.28;;;10.63;100.00
12987;BME280;58897;51.960;5.582;2023-05-01T02:33:48;101295.47;;;10.63;100.00
12987;BME280;58897;51.960;5.582;2023-05-01T02:36:15;101290.69;;;10.57;100.00
12987;BME280;58897;51.960;5.582;2023-05-01T02:38:41;101286.06;;;10.67;100.00
12987;BME280;58897;51.960;5.582;2023-05-01T02:41:09;101285.91;;;10.68;100.00
12987;BME280;58897;51.960;5.582;2023-05-01T02:43:38;101291.16;;;10.70;100.00
12987;BME280;58897;51.960;5.582;2023-05-01T02:46:07;101289.13;;;10.72;100.00
12987;BME280;58897;51.960;5.582;2023-05-01T02:48:37;101283.31;;;10.76;100.00
12987;BME280;58897;51.960;5.582;2023-05-01T02:51:04;101277.91;;;10.76;100.00
12987;BME280;58897;51.960;5.582;2023-05-01T02:53:31;101273.69;;;10.64;100.00
12987;BME280;58897;51.960;5.582;2023-05-01T02:55:58;101269.78;;;10.76;100.00
12987;BME280;58897;51.960;5.582;2023-05-01T02:58:24;101266.31;;;10.66;100.00
12987;BME280;58897;51.960;5.582;2023-05-01T03:00:51;101266.38;;;10.74;100.00
12987;BME280;58897;51.960;5.582;2023-05-01T03:03:17;101259.66;;;10.78;100.00
12987;BME280;58897;51.960;5.582;2023-05-01T03:05:44;101256.97;;;10.78;100.00
12987;BME280;58897;51.960;5.582;2023-05-01T03:08:10;101261.13;;;10.73;100.00
12987;BME280;58897;51.960;5.582;2023-05-01T03:10:40;101254.88;;;10.72;100.00
12987;BME280;58897;51.960;5.582;2023-05-01T03:13:10;101256.59;;;10.73;100.00
12987;BME280;58897;51.960;5.582;2023-05-01T03:15:37;101249.63;;;10.71;100.00
12987;BME280;58897;51.960;5.582;2023-05-01T03:18:04;101253.50;;;10.68;100.00
12987;BME280;58897;51.960;5.582;2023-05-01T03:20:30;101248.78;;;10.70;100.00
12987;BME280;58897;51.960;5.582;2023-05-01T03:22:57;101251.09;;;10.65;100.00
12987;BME280;58897;51.960;5.582;2023-05-01T03:25:24;101242.13;;;10.65;100.00
12987;BME280;58897;51.960;5.582;2023-05-01T03:27:51;101241.16;;;10.66;100.00
12987;BME280;58897;51.960;5.582;2023-05-01T03:30:20;101239.81;;;10.70;100.00
12987;BME280;58897;51.960;5.582;2023-05-01T03:32:46;101240.66;;;10.70;100.00
12987;BME280;58897;51.960;5.582;2023-05-01T03:35:13;101231.03;;;10.68;100.00
12987;BME280;58897;51.960;5.582;2023-05-01T03:37:40;101237.28;;;10.68;100.00
12987;BME280;58897;51.960;5.582;2023-05-01T03:40:07;101233.41;;;10.71;100.00
12987;BME280;58897;51.960;5.582;2023-05-01T03:42:33;101233.72;;;10.68;100.00
12987;BME280;58897;51.960;5.582;2023-05-01T03:45:00;101233.56;;;10.69;100.00
12987;BME280;58897;51.960;5.582;2023-05-01T03:47:26;101231.72;;;10.70;100.00
12987;BME280;58897;51.960;5.582;2023-05-01T03:49:53;101222.38;;;10.64;100.00
12987;BME280;58897;51.960;5.582;2023-05-01T03:52:19;101225.06;;;10.64;100.00
12987;BME280;58897;51.960;5.582;2023-05-01T03:54:46;101217.13;;;10.63;100.00
12987;BME280;58897;51.960;5.582;2023-05-01T03:57:12;101220.03;;;10.69;100.00
12987;BME280;58897;51.960;5.582;2023-05-01T03:59:39;101214.34;;;10.72;100.00
12987;BME280;58897;51.960;5.582;2023-05-01T04:02:09;101214.13;;;10.66;100.00
12987;BME280;58897;51.960;5.582;2023-05-01T04:04:35;101213.47;;;10.72;100.00
12987;BME280;58897;51.960;5.582;2023-05-01T04:07:03;101209.09;;;10.71;100.00
12987;BME280;58897;51.960;5.582;2023-05-01T04:09:30;101208.78;;;10.74;100.00
12987;BME280;58897;51.960;5.582;2023-05-01T04:11:56;101213.34;;;10.73;100.00
12987;BME280;58897;51.960;5.582;2023-05-01T04:14:23;101206.03;;;10.66;100.00
12987;BME280;58897;51.960;5.582;2023-05-01T04:16:49;101204.47;;;10.63;100.00
12987;BME280;58897;51.960;5.582;2023-05-01T04:19:16;101214.25;;;10.64;100.00
12987;BME280;58897;51.960;5.582;2023-05-01T04:21:43;101202.75;;;10.62;100.00
12987;BME280;58897;51.960;5.582;2023-05-01T04:24:09;101208.84;;;10.64;100.00
12987;BME280;58897;51.960;5.582;2023-05-01T04:26:36;101204.31;;;10.65;100.00
12987;BME280;58897;51.960;5.582;2023-05-01T04:29:04;101209.34;;;10.60;100.00
12987;BME280;58897;51.960;5.582;2023-05-01T04:31:30;101204.63;;;10.62;100.00
12987;BME280;58897;51.960;5.582;2023-05-01T04:33:57;101203.63;;;10.63;100.00
12987;BME280;58897;51.960;5.582;2023-05-01T04:36:23;101198.59;;;10.68;100.00
12987;BME280;58897;51.960;5.582;2023-05-01T04:38:50;101196.97;;;10.75;100.00
12987;BME280;58897;51.960;5.582;2023-05-01T04:41:17;101189.94;;;10.64;100.00
12987;BME280;58897;51.960;5.582;2023-05-01T04:43:43;101193.19;;;10.68;100.00
12987;BME280;58897;51.960;5.582;2023-05-01T04:46:10;101197.44;;;10.70;100.00
12987;BME280;58897;51.960;5.582;2023-05-01T04:48:36;101200.31;;;10.69;100.00
12987;BME280;58897;51.960;5.582;2023-05-01T04:51:03;101187.78;;;10.68;100.00
12987;BME280;58897;51.960;5.582;2023-05-01T04:53:29;101193.88;;;10.70;100.00
12987;BME280;58897;51.960;5.582;2023-05-01T04:55:57;101196.34;;;10.81;100.00
12987;BME280;58897;51.960;5.582;2023-05-01T04:58:23;101187.88;;;10.76;100.00
12987;BME280;58897;51.960;5.582;2023-05-01T05:00:50;101189.72;;;10.75;100.00
12987;BME280;58897;51.960;5.582;2023-05-01T05:03:16;101200.22;;;10.78;100.00
12987;BME280;58897;51.960;5.582;2023-05-01T05:05:45;101199.75;;;10.83;100.00
12987;BME280;58897;51.960;5.582;2023-05-01T05:08:14;101205.63;;;10.78;100.00
12987;BME280;58897;51.960;5.582;2023-05-01T05:10:40;101203.13;;;10.85;100.00
12987;BME280;58897;51.960;5.582;2023-05-01T05:13:07;101207.53;;;10.86;100.00
12987;BME280;58897;51.960;5.582;2023-05-01T05:15:35;101203.50;;;10.90;100.00
12987;BME280;58897;51.960;5.582;2023-05-01T05:18:01;101206.22;;;10.90;100.00
12987;BME280;58897;51.960;5.582;2023-05-01T05:20:28;101208.41;;;10.86;100.00
12987;BME280;58897;51.960;5.582;2023-05-01T05:22:55;101212.41;;;11.00;100.00
12987;BME280;58897;51.960;5.582;2023-05-01T05:25:21;101203.94;;;11.03;100.00
12987;BME280;58897;51.960;5.582;2023-05-01T05:27:48;101207.88;;;11.08;100.00
12987;BME280;58897;51.960;5.582;2023-05-01T05:30:14;101206.81;;;11.01;100.00
12987;BME280;58897;51.960;5.582;2023-05-01T05:32:41;101210.38;;;11.02;100.00
12987;BME280;58897;51.960;5.582;2023-05-01T05:35:08;101206.81;;;11.01;100.00
12987;BME280;58897;51.960;5.582;2023-05-01T05:37:34;101199.94;;;11.07;100.00
12987;BME280;58897;51.960;5.582;2023-05-01T05:40:01;101198.91;;;11.08;100.00
12987;BME280;58897;51.960;5.582;2023-05-01T05:42:27;101202.97;;;11.04;100.00
12987;BME280;58897;51.960;5.582;2023-05-01T05:44:54;101197.25;;;11.07;100.00
12987;BME280;58897;51.960;5.582;2023-05-01T05:47:21;101193.06;;;11.12;100.00
12987;BME280;58897;51.960;5.582;2023-05-01T05:49:47;101197.00;;;11.18;100.00
12987;BME280;58897;51.960;5.582;2023-05-01T05:52:14;101192.41;;;11.18;100.00
12987;BME280;58897;51.960;5.582;2023-05-01T05:54:40;101197.66;;;11.20;100.00
12987;BME280;58897;51.960;5.582;2023-05-01T05:57:07;101188.44;;;11.31;100.00
12987;BME280;58897;51.960;5.582;2023-05-01T05:59:33;101187.78;;;11.37;100.00
12987;BME280;58897;51.960;5.582;2023-05-01T06:02:00;101187.16;;;11.43;100.00
12987;BME280;58897;51.960;5.582;2023-05-01T06:04:26;101193.16;;;11.54;100.00
12987;BME280;58897;51.960;5.582;2023-05-01T06:06:53;101187.41;;;11.57;100.00
12987;BME280;58897;51.960;5.582;2023-05-01T06:09:20;101188.47;;;11.64;100.00
12987;BME280;58897;51.960;5.582;2023-05-01T06:11:46;101178.88;;;11.70;100.00
12987;BME280;58897;51.960;5.582;2023-05-01T06:14:14;101178.16;;;11.68;100.00
12987;BME280;58897;51.960;5.582;2023-05-01T06:16:41;101183.66;;;11.84;100.00
12987;BME280;58897;51.960;5.582;2023-05-01T06:19:08;101181.81;;;11.85;100.00
12987;BME280;58897;51.960;5.582;2023-05-01T06:21:37;101176.09;;;11.96;100.00
12987;BME280;58897;51.960;5.582;2023-05-01T06:24:03;101175.28;;;12.03;100.00
12987;BME280;58897;51.960;5.582;2023-05-01T06:26:30;101177.47;;;12.00;100.00
12987;BME280;58897;51.960;5.582;2023-05-01T06:28:56;101168.88;;;12.12;100.00
12987;BME280;58897;51.960;5.582;2023-05-01T06:31:23;101172.31;;;12.22;100.00
12987;BME280;58897;51.960;5.582;2023-05-01T06:33:49;101171.44;;;12.22;100.00
12987;BME280;58897;51.960;5.582;2023-05-01T06:36:16;101166.41;;;12.35;100.00
12987;BME280;58897;51.960;5.582;2023-05-01T06:38:42;101169.59;;;12.38;100.00
12987;BME280;58897;51.960;5.582;2023-05-01T06:41:16;101173.19;;;12.47;100.00
12987;BME280;58897;51.960;5.582;2023-05-01T06:43:43;101169.47;;;12.64;100.00
12987;BME280;58897;51.960;5.582;2023-05-01T06:46:09;101171.34;;;12.80;100.00
12987;BME280;58897;51.960;5.582;2023-05-01T06:48:37;101162.38;;;12.79;100.00
12987;BME280;58897;51.960;5.582;2023-05-01T06:51:04;101170.31;;;12.89;100.00
12987;BME280;58897;51.960;5.582;2023-05-01T06:53:30;101167.09;;;13.01;100.00
12987;BME280;58897;51.960;5.582;2023-05-01T06:55:57;101164.19;;;13.19;100.00
12987;BME280;58897;51.960;5.582;2023-05-01T06:58:23;101162.53;;;13.18;100.00
12987;BME280;58897;51.960;5.582;2023-05-01T07:00:52;101157.94;;;13.19;100.00
12987;BME280;58897;51.960;5.582;2023-05-01T07:03:19;101152.88;;;13.16;100.00
12987;BME280;58897;51.960;5.582;2023-05-01T07:05:46;101156.41;;;13.24;100.00
12987;BME280;58897;51.960;5.582;2023-05-01T07:08:13;101158.75;;;13.35;100.00
12987;BME280;58897;51.960;5.582;2023-05-01T07:10:39;101163.63;;;13.48;100.00
12987;BME280;58897;51.960;5.582;2023-05-01T07:13:07;101166.88;;;13.35;100.00
12987;BME280;58897;51.960;5.582;2023-05-01T07:15:34;101163.56;;;13.64;100.00
12987;BME280;58897;51.960;5.582;2023-05-01T07:18:01;101162.34;;;13.75;100.00
12987;BME280;58897;51.960;5.582;2023-05-01T07:20:28;101161.44;;;14.21;100.00
12987;BME280;58897;51.960;5.582;2023-05-01T07:22:55;101162.41;;;14.36;100.00
12987;BME280;58897;51.960;5.582;2023-05-01T07:25:22;101157.72;;;14.45;100.00
12987;BME280;58897;51.960;5.582;2023-05-01T07:27:48;101161.63;;;14.19;100.00
12987;BME280;58897;51.960;5.582;2023-05-01T07:30:15;101154.97;;;14.53;100.00
12987;BME280;58897;51.960;5.582;2023-05-01T07:32:41;101153.88;;;14.39;100.00
12987;BME280;58897;51.960;5.582;2023-05-01T07:35:08;101154.97;;;14.53;100.00
12987;BME280;58897;51.960;5.582;2023-05-01T07:37:35;101160.09;;;15.08;100.00
12987;BME280;58897;51.960;5.582;2023-05-01T07:40:02;101160.09;;;15.60;100.00
12987;BME280;58897;51.960;5.582;2023-05-01T07:42:28;101145.59;;;15.88;100.00
12987;BME280;58897;51.960;5.582;2023-05-01T07:44:55;101144.75;;;16.02;100.00
12987;BME280;58897;51.960;5.582;2023-05-01T07:47:22;101144.41;;;16.27;100.00
12987;BME280;58897;51.960;5.582;2023-05-01T07:49:49;101145.16;;;16.21;100.00
12987;BME280;58897;51.960;5.582;2023-05-01T07:52:15;101152.56;;;15.76;100.00
12987;BME280;58897;51.960;5.582;2023-05-01T07:54:42;101152.47;;;15.70;100.00
12987;BME280;58897;51.960;5.582;2023-05-01T07:57:08;101146.78;;;16.15;100.00
12987;BME280;58897;51.960;5.582;2023-05-01T07:59:35;101151.31;;;15.93;100.00
12987;BME280;58897;51.960;5.582;2023-05-01T08:02:01;101158.59;;;15.57;100.00
12987;BME280;58897;51.960;5.582;2023-05-01T08:04:28;101157.00;;;15.48;100.00
12987;BME280;58897;51.960;5.582;2023-05-01T08:06:56;101149.81;;;16.05;100.00
12987;BME280;58897;51.960;5.582;2023-05-01T08:09:22;101146.53;;;16.31;100.00
12987;BME280;58897;51.960;5.582;2023-05-01T08:11:49;101157.38;;;16.46;100.00
12987;BME280;58897;51.960;5.582;2023-05-01T08:14:15;101152.97;;;17.08;100.00
12987;BME280;58897;51.960;5.582;2023-05-01T08:16:43;101147.75;;;17.13;100.00
12987;BME280;58897;51.960;5.582;2023-05-01T08:19:09;101152.59;;;17.46;100.00
12987;BME280;58897;51.960;5.582;2023-05-01T08:21:36;101163.56;;;17.52;100.00
12987;BME280;58897;51.960;5.582;2023-05-01T08:24:02;101154.84;;;17.63;100.00
12987;BME280;58897;51.960;5.582;2023-05-01T08:26:29;101160.38;;;17.76;100.00
12987;BME280;58897;51.960;5.582;2023-05-01T08:28:56;101146.59;;;17.29;100.00
12987;BME280;58897;51.960;5.582;2023-05-01T08:31:22;101138.47;;;18.17;100.00
12987;BME280;58897;51.960;5.582;2023-05-01T08:33:50;101146.00;;;18.69;100.00
12987;BME280;58897;51.960;5.582;2023-05-01T08:36:17;101144.63;;;18.32;100.00
12987;BME280;58897;51.960;5.582;2023-05-01T08:38:46;101135.16;;;18.35;100.00
12987;BME280;58897;51.960;5.582;2023-05-01T08:41:20;101144.50;;;18.67;100.00
12987;BME280;58897;51.960;5.582;2023-05-01T08:43:49;101153.97;;;18.77;100.00
12987;BME280;58897;51.960;5.582;2023-05-01T08:46:24;101143.88;;;18.58;100.00
12987;BME280;58897;51.960;5.582;2023-05-01T08:48:56;101150.88;;;18.13;100.00
12987;BME280;58897;51.960;5.582;2023-05-01T08:51:24;101154.28;;;18.28;100.00
12987;BME280;58897;51.960;5.582;2023-05-01T08:53:51;101154.00;;;19.17;98.78
12987;BME280;58897;51.960;5.582;2023-05-01T08:56:19;101151.38;;;19.74;95.25
12987;BME280;58897;51.960;5.582;2023-05-01T08:58:48;101144.09;;;20.81;88.32
12987;BME280;58897;51.960;5.582;2023-05-01T09:01:15;101143.66;;;20.53;90.49
12987;BME280;58897;51.960;5.582;2023-05-01T09:03:43;101138.44;;;20.01;92.30
12987;BME280;58897;51.960;5.582;2023-05-01T09:06:11;101142.53;;;20.29;90.65
12987;BME280;58897;51.960;5.582;2023-05-01T09:08:37;101142.50;;;21.48;83.74
12987;BME280;58897;51.960;5.582;2023-05-01T09:11:04;101138.78;;;20.86;80.11
12987;BME280;58897;51.960;5.582;2023-05-01T09:13:31;101146.16;;;21.60;84.21
12987;BME280;58897;51.960;5.582;2023-05-01T09:15:58;101141.41;;;21.00;77.20
12987;BME280;58897;51.960;5.582;2023-05-01T09:18:26;101140.72;;;21.04;88.31
12987;BME280;58897;51.960;5.582;2023-05-01T09:20:53;101136.94;;;20.49;79.35
12987;BME280;58897;51.960;5.582;2023-05-01T09:23:20;101147.94;;;20.43;90.59
12987;BME280;58897;51.960;5.582;2023-05-01T09:25:47;101134.22;;;20.74;87.61
12987;BME280;58897;51.960;5.582;2023-05-01T09:28:16;101133.53;;;20.54;91.89
12987;BME280;58897;51.960;5.582;2023-05-01T09:30:43;101132.94;;;20.52;87.52
12987;BME280;58897;51.960;5.582;2023-05-01T09:33:13;101143.59;;;19.78;92.45
12987;BME280;58897;51.960;5.582;2023-05-01T09:35:54;101147.03;;;20.11;91.89
12987;BME280;58897;51.960;5.582;2023-05-01T09:38:22;101134.53;;;20.21;90.01
12987;BME280;58897;51.960;5.582;2023-05-01T09:40:49;101150.81;;;19.59;91.64
12987;BME280;58897;51.960;5.582;2023-05-01T09:43:24;101148.91;;;19.59;91.69
12987;BME280;58897;51.960;5.582;2023-05-01T09:46:08;101148.03;;;19.72;92.01
12987;BME280;58897;51.960;5.582;2023-05-01T09:48:36;101145.59;;;19.44;94.11
12987;BME280;58897;51.960;5.582;2023-05-01T09:51:20;101145.34;;;19.46;95.88
12987;BME280;58897;51.960;5.582;2023-05-01T09:53:47;101143.16;;;19.74;90.48
12987;BME280;58897;51.960;5.582;2023-05-01T09:56:14;101145.75;;;19.62;93.23
12987;BME280;58897;51.960;5.582;2023-05-01T09:58:41;101146.19;;;19.40;90.81
12987;BME280;58897;51.960;5.582;2023-05-01T10:01:07;101147.25;;;19.45;93.43
12987;BME280;58897;51.960;5.582;2023-05-01T10:03:34;101155.66;;;19.24;94.30
12987;BME280;58897;51.960;5.582;2023-05-01T10:06:01;101155.44;;;19.65;93.00
12987;BME280;58897;51.960;5.582;2023-05-01T10:08:49;101156.63;;;19.82;88.13
12987;BME280;58897;51.960;5.582;2023-05-01T10:11:15;101146.72;;;19.88;88.83
12987;BME280;58897;51.960;5.582;2023-05-01T10:13:42;101144.84;;;20.33;82.99
12987;BME280;58897;51.960;5.582;2023-05-01T10:16:27;101138.91;;;20.98;77.73
12987;BME280;58897;51.960;5.582;2023-05-01T10:18:55;101135.53;;;21.45;79.26
12987;BME280;58897;51.960;5.582;2023-05-01T10:21:23;101138.75;;;21.79;76.61
12987;BME280;58897;51.960;5.582;2023-05-01T10:23:51;101129.09;;;22.24;76.33
12987;BME280;58897;51.960;5.582;2023-05-01T10:26:18;101125.94;;;21.91;76.78
12987;BME280;58897;51.960;5.582;2023-05-01T10:28:47;101135.00;;;22.09;75.45
12987;BME280;58897;51.960;5.582;2023-05-01T10:31:14;101135.28;;;21.90;75.38
12987;BME280;58897;51.960;5.582;2023-05-01T10:33:43;101141.88;;;21.64;81.06
12987;BME280;58897;51.960;5.582;2023-05-01T10:36:18;101140.16;;;21.88;83.44
12987;BME280;58897;51.960;5.582;2023-05-01T10:38:46;101139.34;;;21.63;80.99
12987;BME280;58897;51.960;5.582;2023-05-01T10:44:25;101133.34;;;22.38;74.51
12987;BME280;58897;51.960;5.582;2023-05-01T10:46:53;101136.72;;;22.82;71.03
12987;BME280;58897;51.960;5.582;2023-05-01T10:49:21;101135.81;;;22.99;67.56
12987;BME280;58897;51.960;5.582;2023-05-01T10:51:59;101136.59;;;22.77;70.62
12987;BME280;58897;51.960;5.582;2023-05-01T10:54:27;101135.03;;;22.69;70.53
12987;BME280;58897;51.960;5.582;2023-05-01T10:57:01;101140.16;;;22.36;65.41
12987;BME280;58897;51.960;5.582;2023-05-01T11:02:29;101135.66;;;22.83;67.98
12987;BME280;58897;51.960;5.582;2023-05-01T11:04:55;101138.34;;;23.01;64.92
12987;BME280;58897;51.960;5.582;2023-05-01T11:07:22;101140.09;;;22.54;65.63
12987;BME280;58897;51.960;5.582;2023-05-01T11:09:54;101137.22;;;22.49;62.80
12987;BME280;58897;51.960;5.582;2023-05-01T11:15:11;101144.09;;;21.74;62.27
12987;BME280;58897;51.960;5.582;2023-05-01T11:22:51;101143.00;;;21.38;66.99
12987;BME280;58897;51.960;5.582;2023-05-01T11:25:26;101145.72;;;21.38;65.93
12987;BME280;58897;51.960;5.582;2023-05-01T11:27:56;101145.25;;;21.48;63.19
12987;BME280;58897;51.960;5.582;2023-05-01T11:30:23;101145.25;;;21.23;64.89
12987;BME280;58897;51.960;5.582;2023-05-01T11:32:51;101148.06;;;21.17;66.05
12987;BME280;58897;51.960;5.582;2023-05-01T11:35:19;101148.06;;;21.17;64.54
12987;BME280;58897;51.960;5.582;2023-05-01T11:37:47;101147.75;;;21.25;66.68
12987;BME280;58897;51.960;5.582;2023-05-01T11:40:28;101152.16;;;21.08;69.59
12987;BME280;58897;51.960;5.582;2023-05-01T11:43:05;101152.38;;;21.92;68.00
12987;BME280;58897;51.960;5.582;2023-05-01T11:45:34;101148.88;;;22.03;61.82
12987;BME280;58897;51.960;5.582;2023-05-01T11:48:01;101139.19;;;22.60;63.47
12987;BME280;58897;51.960;5.582;2023-05-01T11:50:35;101142.81;;;23.37;54.36
12987;BME280;58897;51.960;5.582;2023-05-01T11:53:10;101148.56;;;23.47;54.30
12987;BME280;58897;51.960;5.582;2023-05-01T11:55:41;101149.09;;;23.02;54.56
12987;BME280;58897;51.960;5.582;2023-05-01T11:58:07;101147.78;;;22.93;53.70
12987;BME280;58897;51.960;5.582;2023-05-01T12:00:36;101149.19;;;22.84;57.59
12987;BME280;58897;51.960;5.582;2023-05-01T12:03:05;101152.78;;;23.38;55.00
12987;BME280;58897;51.960;5.582;2023-05-01T12:05:33;101152.38;;;23.34;55.19
12987;BME280;58897;51.960;5.582;2023-05-01T12:08:14;101153.72;;;22.49;57.66
12987;BME280;58897;51.960;5.582;2023-05-01T12:10:46;101152.78;;;22.85;59.53
12987;BME280;58897;51.960;5.582;2023-05-01T12:13:14;101151.06;;;23.25;54.50
12987;BME280;58897;51.960;5.582;2023-05-01T12:15:44;101147.31;;;23.89;50.60
12987;BME280;58897;51.960;5.582;2023-05-01T12:18:12;101153.19;;;23.81;48.77
12987;BME280;58897;51.960;5.582;2023-05-01T12:20:44;101149.72;;;24.09;49.40
12987;BME280;58897;51.960;5.582;2023-05-01T12:23:13;101150.28;;;24.11;51.09
12987;BME280;58897;51.960;5.582;2023-05-01T12:25:44;101144.03;;;24.15;45.07
12987;BME280;58897;51.960;5.582;2023-05-01T12:28:20;101148.00;;;23.96;44.60
12987;BME280;58897;51.960;5.582;2023-05-01T12:30:47;101156.53;;;23.94;47.14
12987;BME280;58897;51.960;5.582;2023-05-01T12:33:18;101159.03;;;24.08;47.91
12987;BME280;58897;51.960;5.582;2023-05-01T12:35:46;101152.06;;;23.54;47.64
12987;BME280;58897;51.960;5.582;2023-05-01T12:38:17;101153.09;;;23.76;53.95
12987;BME280;58897;51.960;5.582;2023-05-01T12:40:51;101157.28;;;23.20;55.28
12987;BME280;58897;51.960;5.582;2023-05-01T12:43:29;101146.34;;;22.61;59.57
12987;BME280;58897;51.960;5.582;2023-05-01T12:45:56;101151.84;;;23.02;64.97
12987;BME280;58897;51.960;5.582;2023-05-01T12:48:23;101154.16;;;22.34;58.84
12987;BME280;58897;51.960;5.582;2023-05-01T12:50:50;101155.06;;;22.58;59.97
12987;BME280;58897;51.960;5.582;2023-05-01T12:53:24;101151.84;;;22.61;53.64
12987;BME280;58897;51.960;5.582;2023-05-01T12:55:53;101151.22;;;22.77;51.46
12987;BME280;58897;51.960;5.582;2023-05-01T12:58:20;101154.00;;;22.59;53.16
12987;BME280;58897;51.960;5.582;2023-05-01T13:00:48;101151.25;;;22.59;55.28
12987;BME280;58897;51.960;5.582;2023-05-01T13:03:24;101150.28;;;22.24;61.52
12987;BME280;58897;51.960;5.582;2023-05-01T13:05:59;101152.41;;;22.22;61.78
12987;BME280;58897;51.960;5.582;2023-05-01T13:08:35;101141.97;;;21.33;64.68
12987;BME280;58897;51.960;5.582;2023-05-01T13:11:13;101157.03;;;21.48;65.79